Time;durP1;ratioP1;P1;durP2;ratioP2;P2;SDS_P1;SDS_P2;PMS_P1;PMS_P2;Temp;Humidity;BMP_temperature;BMP_pressure;BME280_temperature;BME280_humidity;BME280_pressure;Samples;Min_cycle;Max_cycle;Signal;HPM_P1;HPM_P2
2022/07/13 00:01:59;;;;;;;;;;;;;;;28.73;78.99;99569.78;5052726;28;20373;-40
2022/07/13 00:04:24;;;;;;;;;;;;;;;28.72;78.45;99570.78;5052194;28;20410;-40
2022/07/13 00:06:49;;;;;;;;;;;;;;;28.74;78.37;99563.50;5051602;28;20466;-40
2022/07/13 00:09:14;;;;;;;;;;;;;;;28.68;77.94;99556.16;5052345;28;19916;-39
2022/07/13 00:11:40;;;;;;;;;;;;;;;28.14;81.12;99565.84;5052699;28;19970;-40
2022/07/13 00:14:05;;;;;;;;;;;;;;;28.46;79.50;99562.69;5053110;28;19920;-40
2022/07/13 00:16:30;;;;;;;;;;;;;;;28.68;77.49;99560.63;5052792;28;19920;-40
2022/07/13 00:18:55;;;;;;;;;;;;;;;28.72;77.47;99551.41;5052549;28;19920;-40
2022/07/13 00:21:21;;;;;;;;;;;;;;;28.71;76.86;99542.59;5052987;28;19916;-40
2022/07/13 00:23:46;;;;;;;;;;;;;;;28.40;76.21;99546.59;5055765;28;20025;-40
2022/07/13 00:26:11;;;;;;;;;;;;;;;28.23;76.36;99530.50;5056630;28;20034;-40
2022/07/13 00:28:37;;;;;;;;;;;;;;;27.80;77.87;99521.38;5055322;28;19993;-40
2022/07/13 00:31:02;;;;;;;;;;;;;;;27.72;79.43;99516.00;5055690;28;19920;-40
2022/07/13 00:33:27;;;;;;;;;;;;;;;27.70;78.71;99502.09;5056238;28;19916;-40
2022/07/13 00:35:52;;;;;;;;;;;;;;;27.27;80.84;99491.13;5055987;28;19920;-40
2022/07/13 00:38:17;;;;;;;;;;;;;;;26.83;82.64;99492.59;5056073;28;19920;-40
2022/07/13 00:40:43;;;;;;;;;;;;;;;27.10;80.94;99490.03;5055997;28;19920;-40
2022/07/13 00:43:08;;;;;;;;;;;;;;;27.76;77.62;99477.69;5056229;28;19921;-40
2022/07/13 00:45:33;;;;;;;;;;;;;;;27.77;76.09;99482.00;5056245;28;19917;-40
2022/07/13 00:47:58;;;;;;;;;;;;;;;28.23;74.92;99492.59;5054571;28;20432;-40
2022/07/13 00:50:24;;;;;;;;;;;;;;;28.54;75.40;99501.06;5054184;28;19917;-40
2022/07/13 00:52:49;;;;;;;;;;;;;;;28.50;74.39;99497.03;5056597;28;19916;-41
2022/07/13 00:55:14;;;;;;;;;;;;;;;28.51;75.65;99496.03;5055168;28;19928;-40
2022/07/13 00:57:39;;;;;;;;;;;;;;;28.56;75.36;99493.78;5055897;28;19927;-40
2022/07/13 01:00:12;;;;;;;;;;;;;;;28.55;74.62;99497.41;5055133;28;19924;-40
2022/07/13 01:02:38;;;;;;;;;;;;;;;28.32;74.35;99497.00;5056125;28;19926;-40
2022/07/13 01:05:03;;;;;;;;;;;;;;;28.41;74.94;99489.97;5054158;28;19916;-40
2022/07/13 01:07:30;;;;;;;;;;;;;;;28.00;74.68;99482.44;5056120;28;19932;-40
2022/07/13 01:09:55;;;;;;;;;;;;;;;27.16;79.34;99475.38;5054272;28;19916;-40
2022/07/13 01:12:20;;;;;;;;;;;;;;;27.05;79.95;99480.84;5056040;28;19977;-40
2022/07/13 01:14:45;;;;;;;;;;;;;;;27.77;77.12;99479.34;5054574;28;19916;-40
2022/07/13 01:17:11;;;;;;;;;;;;;;;27.89;75.71;99475.53;5055763;28;20019;-40
2022/07/13 01:19:36;;;;;;;;;;;;;;;28.27;73.84;99478.91;5055247;28;20015;-40
2022/07/13 01:22:01;;;;;;;;;;;;;;;27.94;75.39;99475.94;5055910;28;19917;-40
2022/07/13 01:24:30;;;;;;;;;;;;;;;27.77;75.43;99479.34;5054715;28;19964;-40
2022/07/13 01:26:55;;;;;;;;;;;;;;;27.50;77.11;99481.00;5055436;28;19956;-40
2022/07/13 01:29:20;;;;;;;;;;;;;;;28.19;74.70;99481.50;5055568;28;21141;-40
2022/07/13 01:31:45;;;;;;;;;;;;;;;28.39;73.99;99476.03;5055456;28;19916;-40
2022/07/13 01:34:11;;;;;;;;;;;;;;;28.54;73.06;99485.97;5055519;28;19916;-40
2022/07/13 01:36:36;;;;;;;;;;;;;;;28.50;73.93;99481.97;5054405;28;20481;-40
2022/07/13 01:39:02;;;;;;;;;;;;;;;28.56;74.20;99483.19;5053893;28;20484;-40
2022/07/13 01:41:28;;;;;;;;;;;;;;;28.33;74.69;99494.22;5038067;28;20361;-39
2022/07/13 01:43:54;;;;;;;;;;;;;;;28.58;75.21;99502.41;5053862;28;19922;-41
2022/07/13 01:46:19;;;;;;;;;;;;;;;28.53;75.91;99516.13;5054517;28;20365;-42
2022/07/13 01:48:44;;;;;;;;;;;;;;;27.93;78.92;99535.16;5055301;28;20008;-40
2022/07/13 01:51:10;;;;;;;;;;;;;;;28.01;82.90;99544.16;5053441;28;19952;-40
2022/07/13 01:53:35;;;;;;;;;;;;;;;27.86;86.13;99549.13;5055398;28;20061;-40
2022/07/13 01:56:00;;;;;;;;;;;;;;;27.91;88.05;99552.16;5055453;28;20284;-41
2022/07/13 01:58:26;;;;;;;;;;;;;;;28.12;88.67;99549.25;5055255;28;19973;-41
2022/07/13 02:00:52;;;;;;;;;;;;;;;28.14;89.57;99542.84;5054328;28;20033;-41
2022/07/13 02:03:17;;;;;;;;;;;;;;;28.08;92.32;99547.91;5055149;28;20015;-41
2022/07/13 02:05:42;;;;;;;;;;;;;;;27.36;95.47;99547.59;5052522;28;19924;-41
2022/07/13 02:08:08;;;;;;;;;;;;;;;27.74;95.08;99545.81;5055074;28;19927;-41
2022/07/13 02:10:36;;;;;;;;;;;;;;;27.84;93.55;99535.19;5054395;28;19923;-41
2022/07/13 02:13:04;;;;;;;;;;;;;;;27.76;93.94;99527.97;5054228;28;19959;-42
2022/07/13 02:15:30;;;;;;;;;;;;;;;27.71;95.77;99524.91;5054972;28;19916;-42
2022/07/13 02:17:55;;;;;;;;;;;;;;;27.43;95.95;99527.53;5054844;28;19927;-43
2022/07/13 02:20:20;;;;;;;;;;;;;;;27.54;98.10;99524.72;5053833;28;20300;-41
2022/07/13 02:22:46;;;;;;;;;;;;;;;27.68;99.20;99525.22;5054411;28;19936;-41
2022/07/13 02:25:14;;;;;;;;;;;;;;;27.38;98.66;99519.19;5054448;28;19916;-42
2022/07/13 02:27:40;;;;;;;;;;;;;;;27.36;100.00;99515.88;5054588;28;19938;-41
2022/07/13 02:30:05;;;;;;;;;;;;;;;27.73;100.00;99512.38;5053287;28;19948;-42
2022/07/13 02:32:30;;;;;;;;;;;;;;;27.35;98.76;99503.63;5054758;28;19939;-42
2022/07/13 02:34:55;;;;;;;;;;;;;;;27.67;100.00;99503.22;5054045;28;19939;-41
2022/07/13 02:37:21;;;;;;;;;;;;;;;27.78;100.00;99504.84;5053923;28;19923;-41
2022/07/13 02:39:46;;;;;;;;;;;;;;;27.74;98.72;99492.88;5054101;28;20005;-41
2022/07/13 02:42:11;;;;;;;;;;;;;;;27.66;99.73;99501.53;5053897;28;20001;-41
2022/07/13 02:44:36;;;;;;;;;;;;;;;27.21;99.22;99496.13;5053871;28;19923;-42
2022/07/13 02:47:01;;;;;;;;;;;;;;;27.26;100.00;99483.34;5053744;28;20365;-42
2022/07/13 02:49:27;;;;;;;;;;;;;;;27.35;99.29;99471.03;5053655;28;20373;-41
2022/07/13 02:51:52;;;;;;;;;;;;;;;27.49;99.31;99468.75;5054151;28;20309;-42
2022/07/13 02:54:17;;;;;;;;;;;;;;;27.47;97.82;99465.44;5053586;28;19916;-41
2022/07/13 02:56:42;;;;;;;;;;;;;;;27.33;98.35;99457.97;5054056;28;19999;-41
2022/07/13 02:59:08;;;;;;;;;;;;;;;27.30;96.75;99442.38;5052720;28;19997;-42
2022/07/13 03:01:33;;;;;;;;;;;;;;;27.07;100.00;99448.03;5054019;28;20008;-41
2022/07/13 03:03:58;;;;;;;;;;;;;;;27.13;99.77;99452.72;5054104;28;20027;-41
2022/07/13 03:06:23;;;;;;;;;;;;;;;27.46;99.90;99463.78;5051526;28;19947;-41
2022/07/13 03:08:48;;;;;;;;;;;;;;;27.37;100.00;99458.50;5051248;28;19968;-41
2022/07/13 03:11:14;;;;;;;;;;;;;;;26.99;99.83;99455.00;5053369;28;19963;-41
2022/07/13 03:13:39;;;;;;;;;;;;;;;27.01;100.00;99448.59;5052865;28;20445;-41
2022/07/13 03:16:04;;;;;;;;;;;;;;;26.93;100.00;99451.09;5052015;28;19917;-41
2022/07/13 03:18:30;;;;;;;;;;;;;;;26.82;100.00;99445.97;5053038;28;20216;-41
2022/07/13 03:20:55;;;;;;;;;;;;;;;26.81;100.00;99434.59;5052600;28;20535;-41
2022/07/13 03:23:20;;;;;;;;;;;;;;;27.17;100.00;99426.00;5050930;28;19916;-41
2022/07/13 03:25:45;;;;;;;;;;;;;;;26.94;100.00;99434.28;5053298;28;20010;-41
2022/07/13 03:28:11;;;;;;;;;;;;;;;27.04;100.00;99421.84;5052878;28;19955;-41
2022/07/13 03:30:36;;;;;;;;;;;;;;;27.37;100.00;99410.91;5051849;28;19917;-41
2022/07/13 03:33:02;;;;;;;;;;;;;;;27.31;98.18;99414.97;5052673;28;20704;-42
2022/07/13 03:35:27;;;;;;;;;;;;;;;27.41;96.79;99406.97;5052784;28;19948;-41
2022/07/13 03:37:52;;;;;;;;;;;;;;;27.02;99.37;99418.53;5052808;28;19981;-41
2022/07/13 03:40:18;;;;;;;;;;;;;;;27.02;100.00;99426.44;5052415;28;20599;-41
2022/07/13 03:42:43;;;;;;;;;;;;;;;26.96;100.00;99429.69;5052326;28;19916;-41
2022/07/13 03:45:08;;;;;;;;;;;;;;;26.72;100.00;99431.97;5053341;28;20011;-41
2022/07/13 03:47:34;;;;;;;;;;;;;;;27.00;100.00;99430.22;5052856;28;19916;-42
2022/07/13 03:49:59;;;;;;;;;;;;;;;27.14;100.00;99421.81;5052067;28;20013;-41
2022/07/13 03:52:24;;;;;;;;;;;;;;;26.99;100.00;99423.28;5052544;28;20001;-40
2022/07/13 03:54:49;;;;;;;;;;;;;;;27.08;100.00;99417.94;5051257;28;19917;-40
2022/07/13 03:57:15;;;;;;;;;;;;;;;26.88;100.00;99432.22;5053463;28;19916;-40
2022/07/13 03:59:40;;;;;;;;;;;;;;;26.75;100.00;99423.75;5054875;28;19963;-40
2022/07/13 04:02:05;;;;;;;;;;;;;;;26.90;100.00;99414.41;5056206;28;19917;-40
2022/07/13 04:04:30;;;;;;;;;;;;;;;26.57;99.41;99407.78;5056291;28;20010;-40
2022/07/13 04:06:55;;;;;;;;;;;;;;;25.86;100.00;99420.25;5056439;28;19963;-40
2022/07/13 04:09:21;;;;;;;;;;;;;;;26.46;100.00;99412.22;5056582;28;19912;-40
2022/07/13 04:11:48;;;;;;;;;;;;;;;26.33;100.00;99410.84;5056381;28;19939;-40
2022/07/13 04:14:13;;;;;;;;;;;;;;;25.46;100.00;99401.84;5056365;28;19917;-40
2022/07/13 04:16:38;;;;;;;;;;;;;;;26.14;100.00;99406.38;5056373;28;19970;-40
2022/07/13 04:19:03;;;;;;;;;;;;;;;26.00;100.00;99411.13;5055229;28;21018;-40
2022/07/13 04:21:29;;;;;;;;;;;;;;;26.00;100.00;99397.06;5055887;28;20539;-40
2022/07/13 04:23:55;;;;;;;;;;;;;;;25.99;100.00;99403.34;5056672;28;20659;-40
2022/07/13 04:26:20;;;;;;;;;;;;;;;25.85;98.70;99399.28;5056131;28;20053;-40
2022/07/13 04:28:45;;;;;;;;;;;;;;;26.38;99.30;99401.53;5056292;28;19966;-40
2022/07/13 04:31:10;;;;;;;;;;;;;;;26.31;98.85;99412.78;5055433;28;19970;-40
2022/07/13 04:33:35;;;;;;;;;;;;;;;26.28;100.00;99413.91;5055560;28;19940;-40
2022/07/13 04:36:01;;;;;;;;;;;;;;;26.46;100.00;99414.03;5054461;28;19916;-40
2022/07/13 04:38:26;;;;;;;;;;;;;;;26.74;100.00;99404.44;5055897;28;19920;-40
2022/07/13 04:40:51;;;;;;;;;;;;;;;26.68;100.00;99395.25;5055858;28;19924;-40
2022/07/13 04:43:16;;;;;;;;;;;;;;;26.53;100.00;99390.53;5055588;28;19916;-40
2022/07/13 04:45:41;;;;;;;;;;;;;;;26.41;98.77;99393.34;5055990;28;19920;-40
2022/07/13 04:48:07;;;;;;;;;;;;;;;26.52;97.21;99394.16;5055870;28;20003;-40
2022/07/13 04:50:32;;;;;;;;;;;;;;;26.46;99.20;99400.84;5055291;28;20098;-40
2022/07/13 04:52:57;;;;;;;;;;;;;;;26.24;99.97;99396.69;5055810;28;20015;-40
2022/07/13 04:55:23;;;;;;;;;;;;;;;25.49;99.78;99395.44;5055160;28;20012;-40
2022/07/13 04:57:48;;;;;;;;;;;;;;;25.98;100.00;99385.81;5055965;28;19931;-40
2022/07/13 05:00:13;;;;;;;;;;;;;;;26.37;99.23;99381.38;5054762;28;20105;-40
2022/07/13 05:02:38;;;;;;;;;;;;;;;25.34;98.55;99377.38;5055753;28;20365;-40
2022/07/13 05:05:04;;;;;;;;;;;;;;;25.66;99.77;99384.25;5054702;28;19961;-40
2022/07/13 05:07:29;;;;;;;;;;;;;;;25.50;100.00;99381.28;5055804;28;19924;-40
2022/07/13 05:09:56;;;;;;;;;;;;;;;26.07;100.00;99380.56;5053095;28;20565;-40
2022/07/13 05:12:21;;;;;;;;;;;;;;;25.71;100.00;99384.69;5055154;28;19916;-40
2022/07/13 05:14:46;;;;;;;;;;;;;;;25.23;100.00;99380.94;5054925;28;19917;-40
2022/07/13 05:17:12;;;;;;;;;;;;;;;25.44;100.00;99383.50;5055161;28;19916;-41
2022/07/13 05:19:37;;;;;;;;;;;;;;;25.84;100.00;99379.97;5054796;28;19920;-40
2022/07/13 05:22:02;;;;;;;;;;;;;;;25.80;100.00;99377.75;5055301;28;20033;-40
2022/07/13 05:24:28;;;;;;;;;;;;;;;25.99;100.00;99375.13;5055018;28;20293;-40
2022/07/13 05:26:53;;;;;;;;;;;;;;;25.83;100.00;99382.75;5055042;28;19916;-40
2022/07/13 05:29:18;;;;;;;;;;;;;;;26.05;99.93;99376.41;5054574;28;19924;-40
2022/07/13 05:31:43;;;;;;;;;;;;;;;25.57;99.67;99380.63;5054482;28;19912;-40
2022/07/13 05:34:09;;;;;;;;;;;;;;;24.75;100.00;99394.69;5055257;28;20483;-40
2022/07/13 05:36:34;;;;;;;;;;;;;;;25.87;100.00;99387.63;5054939;28;20518;-40
2022/07/13 05:38:59;;;;;;;;;;;;;;;25.37;100.00;99385.00;5054576;28;19974;-40
2022/07/13 05:41:24;;;;;;;;;;;;;;;25.60;100.00;99377.72;5054596;28;20395;-40
2022/07/13 05:43:50;;;;;;;;;;;;;;;25.33;100.00;99377.50;5054934;28;19916;-40
2022/07/13 05:46:15;;;;;;;;;;;;;;;25.18;100.00;99366.44;5054252;28;19924;-40
2022/07/13 05:48:40;;;;;;;;;;;;;;;25.64;100.00;99362.47;5054630;28;19916;-40
2022/07/13 05:51:05;;;;;;;;;;;;;;;26.09;100.00;99367.22;5053939;28;20027;-41
2022/07/13 05:53:31;;;;;;;;;;;;;;;26.14;100.00;99357.09;5054467;28;19917;-40
2022/07/13 05:55:56;;;;;;;;;;;;;;;26.35;97.56;99361.38;5054711;28;19916;-40
2022/07/13 05:58:21;;;;;;;;;;;;;;;25.90;99.25;99361.94;5053208;28;19971;-40
2022/07/13 06:00:47;;;;;;;;;;;;;;;25.84;99.68;99358.88;5054091;28;20512;-40
2022/07/13 06:03:12;;;;;;;;;;;;;;;25.36;100.00;99359.63;5054381;28;20397;-40
2022/07/13 06:05:37;;;;;;;;;;;;;;;25.44;100.00;99354.50;5054280;28;20277;-41
2022/07/13 06:08:03;;;;;;;;;;;;;;;25.73;100.00;99353.72;5054507;28;19939;-40
2022/07/13 06:10:28;;;;;;;;;;;;;;;25.50;100.00;99352.28;5052973;28;20288;-40
2022/07/13 06:12:53;;;;;;;;;;;;;;;25.48;100.00;99341.88;5053806;28;19916;-40
2022/07/13 06:15:18;;;;;;;;;;;;;;;26.11;100.00;99333.59;5054669;28;19927;-41
2022/07/13 06:17:44;;;;;;;;;;;;;;;26.80;95.83;99329.00;5054248;28;19921;-40
2022/07/13 06:20:09;;;;;;;;;;;;;;;26.60;96.29;99329.09;5052565;28;19916;-41
2022/07/13 06:22:34;;;;;;;;;;;;;;;26.49;95.86;99330.06;5054070;28;19916;-40
2022/07/13 06:24:59;;;;;;;;;;;;;;;26.75;94.40;99332.09;5053759;28;19916;-40
2022/07/13 06:27:25;;;;;;;;;;;;;;;26.76;95.50;99332.94;5052953;28;20389;-40
2022/07/13 06:29:50;;;;;;;;;;;;;;;27.23;95.35;99338.19;5053316;28;19963;-40
2022/07/13 06:32:15;;;;;;;;;;;;;;;26.96;96.53;99334.53;5054199;28;19951;-40
2022/07/13 06:34:40;;;;;;;;;;;;;;;27.41;93.89;99328.47;5053333;28;19916;-40
2022/07/13 06:37:07;;;;;;;;;;;;;;;27.67;93.85;99325.09;5054230;28;19917;-40
2022/07/13 06:39:32;;;;;;;;;;;;;;;28.04;91.73;99317.00;5052880;28;19931;-40
2022/07/13 06:41:57;;;;;;;;;;;;;;;28.25;90.00;99311.38;5054076;28;19917;-40
2022/07/13 06:44:23;;;;;;;;;;;;;;;27.60;92.14;99316.06;5053677;28;19916;-40
2022/07/13 06:46:48;;;;;;;;;;;;;;;27.69;93.91;99316.03;5053124;28;19959;-40
2022/07/13 06:49:14;;;;;;;;;;;;;;;28.33;93.37;99315.91;5053347;28;20010;-40
2022/07/13 06:51:40;;;;;;;;;;;;;;;28.11;93.43;99315.41;5053047;28;19917;-40
2022/07/13 06:54:05;;;;;;;;;;;;;;;28.21;93.66;99309.19;5053832;28;20530;-40
2022/07/13 06:56:30;;;;;;;;;;;;;;;28.08;91.09;99310.44;5053395;28;19917;-40
2022/07/13 06:58:56;;;;;;;;;;;;;;;28.57;89.89;99309.94;5053089;28;20019;-40
2022/07/13 07:01:21;;;;;;;;;;;;;;;28.17;91.44;99316.63;5053793;28;19920;-40
2022/07/13 07:03:47;;;;;;;;;;;;;;;28.09;91.08;99316.53;5053635;28;20742;-40
2022/07/13 07:06:12;;;;;;;;;;;;;;;28.03;91.63;99318.00;5053462;28;19917;-40
2022/07/13 07:08:37;;;;;;;;;;;;;;;28.55;91.40;99320.69;5052679;28;19916;-40
2022/07/13 07:11:03;;;;;;;;;;;;;;;28.60;91.63;99312.25;5053451;28;19916;-40
2022/07/13 07:13:28;;;;;;;;;;;;;;;28.95;89.32;99313.13;5053421;28;20374;-40
2022/07/13 07:15:53;;;;;;;;;;;;;;;29.19;87.03;99313.25;5053922;28;19915;-40
2022/07/13 07:18:21;;;;;;;;;;;;;;;29.13;87.87;99311.22;5051117;28;19987;-40
2022/07/13 07:20:46;;;;;;;;;;;;;;;29.08;88.69;99310.88;5052343;28;20677;-40
2022/07/13 07:23:12;;;;;;;;;;;;;;;29.37;87.23;99306.97;5053205;28;19916;-40
2022/07/13 07:25:37;;;;;;;;;;;;;;;29.93;87.30;99308.06;5053932;28;19912;-40
2022/07/13 07:28:02;;;;;;;;;;;;;;;29.98;82.72;99311.03;5053433;28;20049;-40
2022/07/13 07:30:28;;;;;;;;;;;;;;;29.98;82.03;99311.03;5053027;28;20397;-40
2022/07/13 07:32:53;;;;;;;;;;;;;;;29.71;81.81;99308.72;5052149;28;19920;-40
2022/07/13 07:35:18;;;;;;;;;;;;;;;29.88;77.62;99301.56;5053182;28;19962;-40
2022/07/13 07:37:44;;;;;;;;;;;;;;;29.27;80.75;99303.66;5048448;28;19962;-40
2022/07/13 07:40:11;;;;;;;;;;;;;;;30.20;78.91;99306.88;5054277;28;19920;-40
2022/07/13 07:42:36;;;;;;;;;;;;;;;30.02;76.46;99301.75;5052856;28;19916;-40
2022/07/13 07:45:02;;;;;;;;;;;;;;;30.48;75.71;99287.09;5053390;28;19913;-40
2022/07/13 07:47:28;;;;;;;;;;;;;;;30.74;74.96;99300.97;5052657;28;20361;-40
2022/07/13 07:49:53;;;;;;;;;;;;;;;30.85;77.22;99305.94;5052579;28;19917;-40
2022/07/13 07:52:19;;;;;;;;;;;;;;;31.08;73.59;99296.38;5052300;28;19967;-40
2022/07/13 07:54:45;;;;;;;;;;;;;;;31.65;70.96;99288.88;5053388;28;19997;-40
2022/07/13 07:57:11;;;;;;;;;;;;;;;31.16;71.97;99294.50;5053290;28;19922;-40
2022/07/13 07:59:36;;;;;;;;;;;;;;;31.85;72.30;99297.22;5050874;28;19924;-40
2022/07/13 08:02:01;;;;;;;;;;;;;;;31.31;72.04;99289.25;5053512;28;20361;-40
2022/07/13 08:04:27;;;;;;;;;;;;;;;31.23;72.75;99289.31;5052786;28;19919;-40
2022/07/13 08:06:52;;;;;;;;;;;;;;;30.90;74.26;99284.16;5053274;28;19917;-40
2022/07/13 08:09:17;;;;;;;;;;;;;;;30.92;75.97;99283.97;5052754;28;19917;-40
2022/07/13 08:11:42;;;;;;;;;;;;;;;31.45;74.21;99287.69;5052883;28;19997;-40
2022/07/13 08:14:08;;;;;;;;;;;;;;;31.64;71.54;99281.91;5052006;28;19920;-40
2022/07/13 08:16:33;;;;;;;;;;;;;;;31.53;74.97;99284.97;5052692;28;19924;-40
2022/07/13 08:18:58;;;;;;;;;;;;;;;32.17;70.72;99281.16;5052783;28;20296;-40
2022/07/13 08:21:24;;;;;;;;;;;;;;;33.14;69.37;99275.69;5052962;28;19926;-40
2022/07/13 08:23:52;;;;;;;;;;;;;;;32.70;68.57;99272.06;5052521;28;20430;-40
2022/07/13 08:26:29;;;;;;;;;;;;;;;32.33;68.81;99274.81;5052517;28;20004;-40
2022/07/13 08:28:55;;;;;;;;;;;;;;;32.35;63.59;99270.16;5052128;28;19916;-41
2022/07/13 08:31:21;;;;;;;;;;;;;;;32.34;62.98;99263.13;5052667;28;19927;-40
2022/07/13 08:39:14;;;;;;;;;;;;;;;32.05;57.32;99267.44;5051112;28;19931;-40
2022/07/13 08:41:39;;;;;;;;;;;;;;;33.14;54.49;99257.03;5051616;28;19916;-40
2022/07/13 08:44:05;;;;;;;;;;;;;;;32.68;54.03;99262.59;5053542;28;20385;-40
2022/07/13 08:46:30;;;;;;;;;;;;;;;33.01;55.28;99252.34;5054802;28;19916;-40
2022/07/13 08:48:56;;;;;;;;;;;;;;;33.81;54.37;99252.38;5055765;28;19956;-40
2022/07/13 08:51:21;;;;;;;;;;;;;;;33.59;51.69;99244.34;5056221;28;19959;-40
2022/07/13 08:53:47;;;;;;;;;;;;;;;33.82;52.42;99240.63;5055731;28;19955;-40
2022/07/13 08:56:12;;;;;;;;;;;;;;;34.23;46.79;99239.94;5056249;28;20678;-40
2022/07/13 08:58:37;;;;;;;;;;;;;;;33.77;47.48;99256.44;5053647;28;19925;-40
2022/07/13 09:01:05;;;;;;;;;;;;;;;33.84;50.87;99251.97;5054810;28;19916;-40
2022/07/13 09:03:33;;;;;;;;;;;;;;;35.17;45.70;99242.84;5055242;28;19920;-40
2022/07/13 09:05:59;;;;;;;;;;;;;;;33.61;43.64;99250.34;5055678;28;19927;-40
2022/07/13 09:08:24;;;;;;;;;;;;;;;34.18;43.96;99239.69;5055677;28;19916;-40
2022/07/13 09:10:54;;;;;;;;;;;;;;;32.84;48.25;99246.41;5054654;28;20499;-40
2022/07/13 09:13:32;;;;;;;;;;;;;;;33.87;46.30;99243.56;5056144;28;19923;-40
2022/07/13 09:16:11;;;;;;;;;;;;;;;32.53;45.00;99253.81;5055744;28;19961;-40
2022/07/13 09:18:37;;;;;;;;;;;;;;;32.99;47.65;99253.56;5055611;28;19917;-40
2022/07/13 09:21:02;;;;;;;;;;;;;;;33.60;43.88;99235.34;5055035;28;21156;-40
2022/07/13 09:23:30;;;;;;;;;;;;;;;33.31;45.72;99245.09;5055710;28;19981;-40
2022/07/13 09:25:56;;;;;;;;;;;;;;;33.86;42.87;99239.25;5055424;28;19916;-40
2022/07/13 09:28:21;;;;;;;;;;;;;;;33.78;39.05;99242.03;5055951;28;19913;-41
2022/07/13 09:30:46;;;;;;;;;;;;;;;34.39;40.89;99244.94;5055176;28;19913;-40
2022/07/13 09:33:12;;;;;;;;;;;;;;;34.54;40.70;99234.97;5055753;28;19924;-40
2022/07/13 09:35:44;;;;;;;;;;;;;;;35.72;40.41;99237.38;5055350;28;19927;-40
2022/07/13 09:38:13;;;;;;;;;;;;;;;34.14;40.05;99237.44;5055718;28;20300;-41
2022/07/13 09:40:38;;;;;;;;;;;;;;;33.99;39.34;99244.69;5053442;28;19924;-40
2022/07/13 09:48:31;;;;;;;;;;;;;;;34.47;41.11;99236.78;5055606;28;20855;-40
2022/07/13 09:50:57;;;;;;;;;;;;;;;34.56;39.67;99253.50;5053816;28;19913;-41
2022/07/13 09:53:40;;;;;;;;;;;;;;;35.65;39.19;99243.75;5054667;28;19917;-40
2022/07/13 09:56:07;;;;;;;;;;;;;;;35.03;36.41;99241.13;5053361;28;20018;-41
2022/07/13 09:58:33;;;;;;;;;;;;;;;35.48;39.49;99243.31;5054209;28;19974;-41
2022/07/13 10:00:59;;;;;;;;;;;;;;;35.39;38.07;99251.53;5053551;28;19977;-40
2022/07/13 10:03:24;;;;;;;;;;;;;;;34.64;35.35;99248.00;5053691;28;20611;-41
2022/07/13 10:05:50;;;;;;;;;;;;;;;34.94;37.56;99259.25;5054054;28;19917;-41
2022/07/13 10:08:18;;;;;;;;;;;;;;;35.32;36.53;99260.59;5052888;28;21353;-40
2022/07/13 10:10:43;;;;;;;;;;;;;;;34.19;38.58;99265.41;5054119;28;20009;-41
2022/07/13 10:13:08;;;;;;;;;;;;;;;34.41;38.95;99258.94;5053161;28;19970;-40
2022/07/13 10:15:34;;;;;;;;;;;;;;;34.26;40.29;99248.41;5054787;28;19981;-42
2022/07/13 10:17:59;;;;;;;;;;;;;;;33.59;39.26;99259.56;5052812;28;19920;-41
2022/07/13 10:20:25;;;;;;;;;;;;;;;34.20;38.13;99251.03;5053900;28;19923;-40
2022/07/13 10:22:50;;;;;;;;;;;;;;;34.88;39.45;99254.69;5051991;28;19917;-41
2022/07/13 10:25:15;;;;;;;;;;;;;;;34.66;39.20;99251.28;5054658;28;19917;-41
2022/07/13 10:27:41;;;;;;;;;;;;;;;34.01;39.08;99257.84;5053929;28;20366;-40
2022/07/13 10:30:07;;;;;;;;;;;;;;;33.99;40.67;99258.06;5052441;28;19958;-41
2022/07/13 10:32:36;;;;;;;;;;;;;;;34.20;39.59;99267.06;5054285;28;20058;-40
2022/07/13 10:35:05;;;;;;;;;;;;;;;35.26;37.93;99256.03;5053883;28;20038;-41
2022/07/13 10:37:49;;;;;;;;;;;;;;;35.11;37.29;99253.53;5054418;28;20405;-41
2022/07/13 10:40:15;;;;;;;;;;;;;;;34.19;39.97;99262.72;5053069;28;19944;-41
2022/07/13 10:43:03;;;;;;;;;;;;;;;33.93;39.33;99264.16;5054426;28;19956;-40
2022/07/13 10:45:44;;;;;;;;;;;;;;;33.20;40.81;99268.81;5054424;28;19938;-40
2022/07/13 10:48:21;;;;;;;;;;;;;;;33.12;41.55;99259.09;5054427;28;20289;-40
2022/07/13 10:50:51;;;;;;;;;;;;;;;33.84;40.05;99259.97;5053076;28;19924;-41
2022/07/13 10:53:17;;;;;;;;;;;;;;;34.76;38.55;99256.25;5054515;28;19956;-41
2022/07/13 10:55:46;;;;;;;;;;;;;;;34.30;39.49;99257.66;5053346;28;20057;-40
2022/07/13 10:58:29;;;;;;;;;;;;;;;34.43;40.49;99264.94;5054292;28;20021;-40
2022/07/13 11:00:55;;;;;;;;;;;;;;;34.07;41.58;99257.88;5053526;28;19916;-41
2022/07/13 11:03:24;;;;;;;;;;;;;;;33.98;41.62;99256.38;5053603;28;20396;-40
2022/07/13 11:06:06;;;;;;;;;;;;;;;34.82;38.43;99242.09;5053849;28;19963;-42
2022/07/13 11:08:31;;;;;;;;;;;;;;;34.91;38.33;99248.09;5052843;28;19917;-41
2022/07/13 11:11:09;;;;;;;;;;;;;;;36.20;35.33;99247.88;5053190;28;19981;-40
2022/07/13 11:13:35;;;;;;;;;;;;;;;35.79;37.12;99243.56;5053587;28;19923;-41
2022/07/13 11:16:00;;;;;;;;;;;;;;;35.64;36.88;99236.75;5054285;28;20344;-41
2022/07/13 11:18:27;;;;;;;;;;;;;;;34.26;39.36;99240.38;5053312;28;19920;-40
2022/07/13 11:21:05;;;;;;;;;;;;;;;33.91;39.87;99247.50;5053308;28;19912;-41
2022/07/13 11:26:24;;;;;;;;;;;;;;;36.31;38.57;99240.19;5051873;28;19961;-40
2022/07/13 11:29:12;;;;;;;;;;;;;;;35.34;38.28;99245.97;5051943;28;19927;-41
2022/07/13 11:31:38;;;;;;;;;;;;;;;36.33;38.25;99240.81;5033242;28;19912;-40
2022/07/13 11:34:03;;;;;;;;;;;;;;;36.51;37.76;99249.00;5052242;28;19913;-40
2022/07/13 11:36:28;;;;;;;;;;;;;;;35.80;37.92;99239.81;5053591;28;19920;-40
2022/07/13 11:38:53;;;;;;;;;;;;;;;35.67;39.25;99237.16;5051049;28;19932;-40
2022/07/13 11:41:20;;;;;;;;;;;;;;;35.59;39.08;99234.66;5053840;28;20027;-40
2022/07/13 11:43:49;;;;;;;;;;;;;;;36.04;41.40;99240.22;5053914;28;19917;-41
2022/07/13 11:46:20;;;;;;;;;;;;;;;36.33;37.28;99233.56;5053407;28;19920;-42
2022/07/13 11:48:45;;;;;;;;;;;;;;;36.31;37.22;99232.16;5052216;28;19966;-40
2022/07/13 11:51:10;;;;;;;;;;;;;;;36.72;37.10;99237.22;5052170;28;20036;-40
2022/07/13 11:53:35;;;;;;;;;;;;;;;34.91;40.40;99242.75;5051779;28;19963;-41
2022/07/13 11:56:05;;;;;;;;;;;;;;;36.21;37.97;99244.13;5053430;28;19999;-41
2022/07/13 11:58:34;;;;;;;;;;;;;;;35.07;39.97;99246.91;5052026;28;19967;-40
2022/07/13 12:00:59;;;;;;;;;;;;;;;33.13;44.29;99260.72;5052380;28;20439;-41
2022/07/13 12:03:26;;;;;;;;;;;;;;;34.74;42.71;99253.00;5053373;28;19947;-41
2022/07/13 12:05:51;;;;;;;;;;;;;;;35.16;38.91;99240.38;5052774;28;19927;-40
2022/07/13 12:08:16;;;;;;;;;;;;;;;35.49;39.04;99244.94;5053879;28;20385;-41
2022/07/13 12:10:41;;;;;;;;;;;;;;;34.80;41.80;99238.78;5051814;28;19916;-40
2022/07/13 12:13:07;;;;;;;;;;;;;;;35.38;40.79;99230.31;5053401;28;19917;-41
2022/07/13 12:15:32;;;;;;;;;;;;;;;34.18;41.81;99231.69;5053152;28;19955;-40
2022/07/13 12:17:59;;;;;;;;;;;;;;;34.06;43.58;99242.88;5052032;28;19939;-41
2022/07/13 12:20:24;;;;;;;;;;;;;;;33.77;44.40;99240.41;5055386;28;19923;-40
2022/07/13 12:22:51;;;;;;;;;;;;;;;34.15;44.57;99244.41;5057143;28;20614;-42
2022/07/13 12:25:29;;;;;;;;;;;;;;;33.96;45.41;99234.38;5057239;28;19916;-41
2022/07/13 12:27:54;;;;;;;;;;;;;;;33.67;46.62;99236.22;5057204;28;19916;-40
2022/07/13 12:30:20;;;;;;;;;;;;;;;33.80;46.05;99229.31;5057045;28;20033;-40
2022/07/13 12:33:00;;;;;;;;;;;;;;;33.42;49.21;99230.44;5056152;28;19924;-41
2022/07/13 12:35:30;;;;;;;;;;;;;;;32.71;50.47;99230.25;5057065;28;20263;-40
2022/07/13 12:37:56;;;;;;;;;;;;;;;34.60;48.32;99232.50;5056510;28;20011;-40
2022/07/13 12:40:52;;;;;;;;;;;;;;;34.42;47.35;99220.50;5056810;28;19912;-40
2022/07/13 12:43:18;;;;;;;;;;;;;;;34.52;45.74;99218.28;5056769;28;19917;-40
2022/07/13 12:45:44;;;;;;;;;;;;;;;35.26;44.41;99216.69;5057337;28;19916;-40
2022/07/13 12:48:32;;;;;;;;;;;;;;;35.94;43.27;99210.34;5056513;28;20460;-40
2022/07/13 12:50:58;;;;;;;;;;;;;;;36.44;41.08;99222.19;5050593;28;19916;-40
2022/07/13 12:53:23;;;;;;;;;;;;;;;35.79;42.26;99219.44;5056822;28;19923;-41
2022/07/13 12:55:55;;;;;;;;;;;;;;;36.01;42.81;99221.88;5057097;28;19927;-40